sensor_id;sensor_type;location;lat;lon;timestamp;temperature;humidity
52107;DHT22;38105;52.968;5.974;2023-02-13T00:00:14;6.50;99.90
52107;DHT22;38105;52.968;5.974;2023-02-13T00:02:40;6.60;99.90
52107;DHT22;38105;52.968;5.974;2023-02-13T00:05:06;6.60;99.90
52107;DHT22;38105;52.968;5.974;2023-02-13T00:07:32;6.50;99.90
52107;DHT22;38105;52.968;5.974;2023-02-13T00:09:58;6.60;99.90
52107;DHT22;38105;52.968;5.974;2023-02-13T00:12:23;6.60;99.90
52107;DHT22;38105;52.968;5.974;2023-02-13T00:14:49;6.50;99.90
52107;DHT22;38105;52.968;5.974;2023-02-13T00:17:15;6.70;99.90
52107;DHT22;38105;52.968;5.974;2023-02-13T00:19:40;6.50;99.90
52107;DHT22;38105;52.968;5.974;2023-02-13T00:22:06;6.70;99.90
52107;DHT22;38105;52.968;5.974;2023-02-13T00:24:31;6.70;99.90
52107;DHT22;38105;52.968;5.974;2023-02-13T00:26:57;6.70;99.90
52107;DHT22;38105;52.968;5.974;2023-02-13T00:29:23;6.60;99.90
52107;DHT22;38105;52.968;5.974;2023-02-13T00:31:48;6.70;99.90
52107;DHT22;38105;52.968;5.974;2023-02-13T00:34:14;6.60;99.90
52107;DHT22;38105;52.968;5.974;2023-02-13T00:36:40;6.60;99.90
52107;DHT22;38105;52.968;5.974;2023-02-13T00:39:05;6.70;99.90
52107;DHT22;38105;52.968;5.974;2023-02-13T00:41:31;6.60;99.90
52107;DHT22;38105;52.968;5.974;2023-02-13T00:43:57;6.70;99.90
52107;DHT22;38105;52.968;5.974;2023-02-13T00:46:22;6.60;99.90
52107;DHT22;38105;52.968;5.974;2023-02-13T00:48:48;6.50;99.90
52107;DHT22;38105;52.968;5.974;2023-02-13T00:51:14;6.50;99.90
52107;DHT22;38105;52.968;5.974;2023-02-13T00:53:39;6.50;99.90
52107;DHT22;38105;52.968;5.974;2023-02-13T00:56:05;6.60;99.90
52107;DHT22;38105;52.968;5.974;2023-02-13T00:58:31;6.70;99.90
52107;DHT22;38105;52.968;5.974;2023-02-13T01:00:57;6.70;99.90
52107;DHT22;38105;52.968;5.974;2023-02-13T01:03:23;6.70;99.90
52107;DHT22;38105;52.968;5.974;2023-02-13T01:05:50;6.70;99.90
52107;DHT22;38105;52.968;5.974;2023-02-13T01:08:17;6.60;99.90
52107;DHT22;38105;52.968;5.974;2023-02-13T01:10:45;6.70;99.90
52107;DHT22;38105;52.968;5.974;2023-02-13T01:13:12;6.60;99.90
52107;DHT22;38105;52.968;5.974;2023-02-13T01:15:38;6.70;99.90
52107;DHT22;38105;52.968;5.974;2023-02-13T01:18:04;6.70;99.90
52107;DHT22;38105;52.968;5.974;2023-02-13T01:20:30;6.80;99.90
52107;DHT22;38105;52.968;5.974;2023-02-13T01:22:56;6.60;99.90
52107;DHT22;38105;52.968;5.974;2023-02-13T01:25:22;6.80;99.90
52107;DHT22;38105;52.968;5.974;2023-02-13T01:27:48;6.70;99.90
52107;DHT22;38105;52.968;5.974;2023-02-13T01:30:15;6.70;99.90
52107;DHT22;38105;52.968;5.974;2023-02-13T01:32:44;6.70;99.90
52107;DHT22;38105;52.968;5.974;2023-02-13T01:35:11;6.70;99.90
52107;DHT22;38105;52.968;5.974;2023-02-13T01:37:38;6.70;99.90
52107;DHT22;38105;52.968;5.974;2023-02-13T01:40:05;6.70;99.90
52107;DHT22;38105;52.968;5.974;2023-02-13T01:42:32;6.60;99.90
52107;DHT22;38105;52.968;5.974;2023-02-13T01:45:04;6.70;99.90
52107;DHT22;38105;52.968;5.974;2023-02-13T01:50:38;6.60;99.90
52107;DHT22;38105;52.968;5.974;2023-02-13T01:53:26;6.50;99.90
52107;DHT22;38105;52.968;5.974;2023-02-13T01:56:04;6.50;99.90
52107;DHT22;38105;52.968;5.974;2023-02-13T01:58:34;6.50;99.90
52107;DHT22;38105;52.968;5.974;2023-02-13T02:01:02;6.50;99.90
52107;DHT22;38105;52.968;5.974;2023-02-13T02:03:33;6.50;99.90
52107;DHT22;38105;52.968;5.974;2023-02-13T02:06:00;6.60;99.90
52107;DHT22;38105;52.968;5.974;2023-02-13T02:08:27;6.60;99.90
52107;DHT22;38105;52.968;5.974;2023-02-13T02:10:55;6.50;99.90
52107;DHT22;38105;52.968;5.974;2023-02-13T02:13:25;6.60;99.90
52107;DHT22;38105;52.968;5.974;2023-02-13T02:15:51;6.40;99.90
52107;DHT22;38105;52.968;5.974;2023-02-13T02:18:20;6.60;99.90
52107;DHT22;38105;52.968;5.974;2023-02-13T02:26:54;6.40;99.90
52107;DHT22;38105;52.968;5.974;2023-02-13T02:29:42;6.50;99.90
52107;DHT22;38105;52.968;5.974;2023-02-13T02:34:53;6.40;99.90
52107;DHT22;38105;52.968;5.974;2023-02-13T02:37:37;6.50;99.90
52107;DHT22;38105;52.968;5.974;2023-02-13T02:40:23;6.40;99.90
52107;DHT22;38105;52.968;5.974;2023-02-13T02:45:41;6.60;99.90
52107;DHT22;38105;52.968;5.974;2023-02-13T02:48:20;6.50;99.90
52107;DHT22;38105;52.968;5.974;2023-02-13T02:57:30;6.40;99.90
52107;DHT22;38105;52.968;5.974;2023-02-13T03:00:19;6.40;99.90
52107;DHT22;38105;52.968;5.974;2023-02-13T03:03:08;6.50;99.90
52107;DHT22;38105;52.968;5.974;2023-02-13T03:05:56;6.50;99.90
52107;DHT22;38105;52.968;5.974;2023-02-13T03:08:42;6.40;99.90
52107;DHT22;38105;52.968;5.974;2023-02-13T03:11:28;6.50;99.90
52107;DHT22;38105;52.968;5.974;2023-02-13T03:14:16;6.40;99.90
52107;DHT22;38105;52.968;5.974;2023-02-13T03:16:43;6.30;99.90
52107;DHT22;38105;52.968;5.974;2023-02-13T03:22:38;6.50;99.90
52107;DHT22;38105;52.968;5.974;2023-02-13T03:25:20;6.50;99.90
52107;DHT22;38105;52.968;5.974;2023-02-13T03:28:25;6.30;99.90
52107;DHT22;38105;52.968;5.974;2023-02-13T03:32:03;6.30;99.90
52107;DHT22;38105;52.968;5.974;2023-02-13T03:34:33;6.50;99.90
52107;DHT22;38105;52.968;5.974;2023-02-13T03:37:22;6.50;99.90
52107;DHT22;38105;52.968;5.974;2023-02-13T03:40:20;6.50;99.90
52107;DHT22;38105;52.968;5.974;2023-02-13T03:42:52;6.40;99.90
52107;DHT22;38105;52.968;5.974;2023-02-13T03:45:27;6.50;99.90
52107;DHT22;38105;52.968;5.974;2023-02-13T03:48:16;6.40;99.90
52107;DHT22;38105;52.968;5.974;2023-02-13T03:51:02;6.40;99.90
52107;DHT22;38105;52.968;5.974;2023-02-13T03:53:31;6.40;99.90
52107;DHT22;38105;52.968;5.974;2023-02-13T03:55:58;6.30;99.90
52107;DHT22;38105;52.968;5.974;2023-02-13T03:58:51;6.40;99.90
52107;DHT22;38105;52.968;5.974;2023-02-13T04:01:37;6.40;99.90
52107;DHT22;38105;52.968;5.974;2023-02-13T04:04:16;6.40;99.90
52107;DHT22;38105;52.968;5.974;2023-02-13T04:07:02;6.40;99.90
52107;DHT22;38105;52.968;5.974;2023-02-13T04:09:31;6.20;99.90
52107;DHT22;38105;52.968;5.974;2023-02-13T04:14:45;6.10;99.90
52107;DHT22;38105;52.968;5.974;2023-02-13T04:17:35;6.20;99.90
52107;DHT22;38105;52.968;5.974;2023-02-13T04:20:02;6.00;99.90
52107;DHT22;38105;52.968;5.974;2023-02-13T04:22:29;6.00;99.90
52107;DHT22;38105;52.968;5.974;2023-02-13T04:24:54;6.00;99.90
52107;DHT22;38105;52.968;5.974;2023-02-13T04:27:20;6.20;99.90
52107;DHT22;38105;52.968;5.974;2023-02-13T04:29:45;6.00;99.90
52107;DHT22;38105;52.968;5.974;2023-02-13T04:32:11;6.00;99.90
52107;DHT22;38105;52.968;5.974;2023-02-13T04:34:38;6.10;99.90
52107;DHT22;38105;52.968;5.974;2023-02-13T04:37:04;6.10;99.90
52107;DHT22;38105;52.968;5.974;2023-02-13T04:39:29;6.00;99.90
52107;DHT22;38105;52.968;5.974;2023-02-13T04:41:55;6.20;99.90
52107;DHT22;38105;52.968;5.974;2023-02-13T04:44:21;6.20;99.90
52107;DHT22;38105;52.968;5.974;2023-02-13T04:46:46;6.10;99.90
52107;DHT22;38105;52.968;5.974;2023-02-13T04:49:12;6.10;99.90
52107;DHT22;38105;52.968;5.974;2023-02-13T04:51:37;6.00;99.90
52107;DHT22;38105;52.968;5.974;2023-02-13T04:54:03;6.20;99.90
52107;DHT22;38105;52.968;5.974;2023-02-13T04:56:29;6.20;99.90
52107;DHT22;38105;52.968;5.974;2023-02-13T04:58:54;6.00;99.90
52107;DHT22;38105;52.968;5.974;2023-02-13T05:01:21;6.00;99.90
52107;DHT22;38105;52.968;5.974;2023-02-13T05:03:47;6.10;99.90
52107;DHT22;38105;52.968;5.974;2023-02-13T05:06:13;6.20;99.90
52107;DHT22;38105;52.968;5.974;2023-02-13T05:08:39;6.00;99.90
52107;DHT22;38105;52.968;5.974;2023-02-13T05:11:05;6.10;99.90
52107;DHT22;38105;52.968;5.974;2023-02-13T05:13:31;6.10;99.90
52107;DHT22;38105;52.968;5.974;2023-02-13T05:15:57;6.20;99.90
52107;DHT22;38105;52.968;5.974;2023-02-13T05:18:23;6.00;99.90
52107;DHT22;38105;52.968;5.974;2023-02-13T05:20:48;6.20;99.90
52107;DHT22;38105;52.968;5.974;2023-02-13T05:23:34;6.00;99.90
52107;DHT22;38105;52.968;5.974;2023-02-13T05:26:00;6.00;99.90
52107;DHT22;38105;52.968;5.974;2023-02-13T05:28:25;6.20;99.90
52107;DHT22;38105;52.968;5.974;2023-02-13T05:31:09;6.10;99.90
52107;DHT22;38105;52.968;5.974;2023-02-13T05:33:36;6.00;99.90
52107;DHT22;38105;52.968;5.974;2023-02-13T05:36:01;6.00;99.90
52107;DHT22;38105;52.968;5.974;2023-02-13T05:38:27;6.00;99.90
52107;DHT22;38105;52.968;5.974;2023-02-13T05:40:53;6.10;99.90
52107;DHT22;38105;52.968;5.974;2023-02-13T05:43:19;6.10;99.90
52107;DHT22;38105;52.968;5.974;2023-02-13T05:45:44;6.10;99.90
52107;DHT22;38105;52.968;5.974;2023-02-13T05:48:10;6.00;99.90
52107;DHT22;38105;52.968;5.974;2023-02-13T05:50:36;6.20;99.90
52107;DHT22;38105;52.968;5.974;2023-02-13T05:53:03;6.20;99.90
52107;DHT22;38105;52.968;5.974;2023-02-13T05:55:29;6.10;99.90
52107;DHT22;38105;52.968;5.974;2023-02-13T05:57:56;6.20;99.90
52107;DHT22;38105;52.968;5.974;2023-02-13T06:00:22;6.00;99.90
52107;DHT22;38105;52.968;5.974;2023-02-13T06:02:48;6.20;99.90
52107;DHT22;38105;52.968;5.974;2023-02-13T06:05:13;6.00;99.90
52107;DHT22;38105;52.968;5.974;2023-02-13T06:07:39;6.20;99.90
52107;DHT22;38105;52.968;5.974;2023-02-13T06:10:05;6.10;99.90
52107;DHT22;38105;52.968;5.974;2023-02-13T06:12:31;6.10;99.90
52107;DHT22;38105;52.968;5.974;2023-02-13T06:14:56;6.20;99.90
52107;DHT22;38105;52.968;5.974;2023-02-13T06:17:22;6.00;99.90
52107;DHT22;38105;52.968;5.974;2023-02-13T06:19:48;6.20;99.90
52107;DHT22;38105;52.968;5.974;2023-02-13T06:22:13;6.00;99.90
52107;DHT22;38105;52.968;5.974;2023-02-13T06:24:39;6.20;99.90
52107;DHT22;38105;52.968;5.974;2023-02-13T06:27:04;6.00;99.90
52107;DHT22;38105;52.968;5.974;2023-02-13T06:29:30;6.00;99.90
52107;DHT22;38105;52.968;5.974;2023-02-13T06:31:58;5.90;99.90
52107;DHT22;38105;52.968;5.974;2023-02-13T06:34:23;5.90;99.90
52107;DHT22;38105;52.968;5.974;2023-02-13T06:36:49;6.10;99.90
52107;DHT22;38105;52.968;5.974;2023-02-13T06:39:18;6.10;99.90
52107;DHT22;38105;52.968;5.974;2023-02-13T06:41:43;6.10;99.90
52107;DHT22;38105;52.968;5.974;2023-02-13T06:44:09;6.10;99.90
52107;DHT22;38105;52.968;5.974;2023-02-13T06:46:35;6.00;99.90
52107;DHT22;38105;52.968;5.974;2023-02-13T06:49:00;6.10;99.90
52107;DHT22;38105;52.968;5.974;2023-02-13T06:51:26;6.00;99.90
52107;DHT22;38105;52.968;5.974;2023-02-13T06:53:51;6.00;99.90
52107;DHT22;38105;52.968;5.974;2023-02-13T06:56:17;6.00;99.90
52107;DHT22;38105;52.968;5.974;2023-02-13T06:58:43;6.00;99.90
52107;DHT22;38105;52.968;5.974;2023-02-13T07:01:10;6.10;99.90
52107;DHT22;38105;52.968;5.974;2023-02-13T07:03:35;6.00;99.90
52107;DHT22;38105;52.968;5.974;2023-02-13T07:06:01;6.10;99.90
52107;DHT22;38105;52.968;5.974;2023-02-13T07:08:26;6.00;99.90
52107;DHT22;38105;52.968;5.974;2023-02-13T07:10:52;6.10;99.90
52107;DHT22;38105;52.968;5.974;2023-02-13T07:13:18;6.00;99.90
52107;DHT22;38105;52.968;5.974;2023-02-13T07:15:43;6.00;99.90
52107;DHT22;38105;52.968;5.974;2023-02-13T07:18:09;6.20;99.90
52107;DHT22;38105;52.968;5.974;2023-02-13T07:20:35;6.00;99.90
52107;DHT22;38105;52.968;5.974;2023-02-13T07:23:03;6.00;99.90
52107;DHT22;38105;52.968;5.974;2023-02-13T07:25:29;6.10;99.90
52107;DHT22;38105;52.968;5.974;2023-02-13T07:28:00;5.90;99.90
52107;DHT22;38105;52.968;5.974;2023-02-13T07:30:26;5.90;99.90
52107;DHT22;38105;52.968;5.974;2023-02-13T07:32:52;6.10;99.90
52107;DHT22;38105;52.968;5.974;2023-02-13T07:35:18;6.00;99.90
52107;DHT22;38105;52.968;5.974;2023-02-13T07:37:43;6.00;99.90
52107;DHT22;38105;52.968;5.974;2023-02-13T07:40:09;6.20;99.90
52107;DHT22;38105;52.968;5.974;2023-02-13T07:42:35;6.00;99.90
52107;DHT22;38105;52.968;5.974;2023-02-13T07:45:01;6.10;99.90
52107;DHT22;38105;52.968;5.974;2023-02-13T07:47:29;6.00;99.90
52107;DHT22;38105;52.968;5.974;2023-02-13T07:49:55;6.20;99.90
52107;DHT22;38105;52.968;5.974;2023-02-13T07:52:21;6.20;99.90
52107;DHT22;38105;52.968;5.974;2023-02-13T07:54:46;6.30;99.90
52107;DHT22;38105;52.968;5.974;2023-02-13T07:57:13;6.10;99.90
52107;DHT22;38105;52.968;5.974;2023-02-13T07:59:39;6.10;99.90
52107;DHT22;38105;52.968;5.974;2023-02-13T08:02:05;6.10;99.90
52107;DHT22;38105;52.968;5.974;2023-02-13T08:04:30;6.10;99.90
52107;DHT22;38105;52.968;5.974;2023-02-13T08:06:56;6.20;99.90
52107;DHT22;38105;52.968;5.974;2023-02-13T08:09:22;6.20;99.90
52107;DHT22;38105;52.968;5.974;2023-02-13T08:12:07;6.10;99.90
52107;DHT22;38105;52.968;5.974;2023-02-13T08:14:33;6.10;99.90
52107;DHT22;38105;52.968;5.974;2023-02-13T08:16:59;6.20;99.90
52107;DHT22;38105;52.968;5.974;2023-02-13T08:19:28;6.30;99.90
52107;DHT22;38105;52.968;5.974;2023-02-13T08:21:53;6.20;99.90
52107;DHT22;38105;52.968;5.974;2023-02-13T08:24:19;6.40;99.90
52107;DHT22;38105;52.968;5.974;2023-02-13T08:26:45;6.30;99.90
52107;DHT22;38105;52.968;5.974;2023-02-13T08:29:10;6.40;99.90
52107;DHT22;38105;52.968;5.974;2023-02-13T08:31:36;6.50;99.90
52107;DHT22;38105;52.968;5.974;2023-02-13T08:34:02;6.40;99.90
52107;DHT22;38105;52.968;5.974;2023-02-13T08:36:28;6.50;99.90
52107;DHT22;38105;52.968;5.974;2023-02-13T08:38:54;6.60;99.90
52107;DHT22;38105;52.968;5.974;2023-02-13T08:41:19;6.50;99.90
52107;DHT22;38105;52.968;5.974;2023-02-13T08:43:50;6.60;99.90
52107;DHT22;38105;52.968;5.974;2023-02-13T08:46:16;6.40;99.90
52107;DHT22;38105;52.968;5.974;2023-02-13T08:48:42;6.40;99.90
52107;DHT22;38105;52.968;5.974;2023-02-13T08:51:10;6.60;99.90
52107;DHT22;38105;52.968;5.974;2023-02-13T08:53:36;6.60;99.90
52107;DHT22;38105;52.968;5.974;2023-02-13T08:56:02;6.70;99.90
52107;DHT22;38105;52.968;5.974;2023-02-13T08:58:28;6.50;99.90
52107;DHT22;38105;52.968;5.974;2023-02-13T09:00:54;6.60;99.90
52107;DHT22;38105;52.968;5.974;2023-02-13T09:03:19;6.60;99.90
52107;DHT22;38105;52.968;5.974;2023-02-13T09:05:45;6.80;99.90
52107;DHT22;38105;52.968;5.974;2023-02-13T09:08:12;6.70;99.90
52107;DHT22;38105;52.968;5.974;2023-02-13T09:10:38;6.80;99.90
52107;DHT22;38105;52.968;5.974;2023-02-13T09:13:04;6.80;99.90
52107;DHT22;38105;52.968;5.974;2023-02-13T09:15:31;6.90;99.90
52107;DHT22;38105;52.968;5.974;2023-02-13T09:17:57;6.90;99.90
52107;DHT22;38105;52.968;5.974;2023-02-13T09:20:22;6.90;99.90
52107;DHT22;38105;52.968;5.974;2023-02-13T09:22:48;6.90;99.90
52107;DHT22;38105;52.968;5.974;2023-02-13T09:25:14;6.90;99.90
52107;DHT22;38105;52.968;5.974;2023-02-13T09:27:39;6.80;99.90
52107;DHT22;38105;52.968;5.974;2023-02-13T09:30:06;6.80;99.90
52107;DHT22;38105;52.968;5.974;2023-02-13T09:32:33;6.80;99.90
52107;DHT22;38105;52.968;5.974;2023-02-13T09:34:59;6.80;99.90
52107;DHT22;38105;52.968;5.974;2023-02-13T09:37:25;6.80;99.90
52107;DHT22;38105;52.968;5.974;2023-02-13T09:39:51;6.80;99.90
52107;DHT22;38105;52.968;5.974;2023-02-13T09:42:24;7.00;99.90
52107;DHT22;38105;52.968;5.974;2023-02-13T09:44:54;6.90;99.90
52107;DHT22;38105;52.968;5.974;2023-02-13T09:47:35;7.00;99.90
52107;DHT22;38105;52.968;5.974;2023-02-13T09:50:21;7.00;99.90
52107;DHT22;38105;52.968;5.974;2023-02-13T09:52:50;7.00;99.90
52107;DHT22;38105;52.968;5.974;2023-02-13T09:55:18;7.10;99.90
52107;DHT22;38105;52.968;5.974;2023-02-13T09:58:04;7.10;99.90
52107;DHT22;38105;52.968;5.974;2023-02-13T10:00:37;7.20;99.90
52107;DHT22;38105;52.968;5.974;2023-02-13T10:03:39;7.20;99.90
52107;DHT22;38105;52.968;5.974;2023-02-13T10:06:22;7.20;99.90
52107;DHT22;38105;52.968;5.974;2023-02-13T10:09:00;7.40;99.90
52107;DHT22;38105;52.968;5.974;2023-02-13T10:14:25;7.30;99.90
52107;DHT22;38105;52.968;5.974;2023-02-13T10:17:13;7.40;99.90
52107;DHT22;38105;52.968;5.974;2023-02-13T10:19:41;7.40;99.90
52107;DHT22;38105;52.968;5.974;2023-02-13T10:22:17;7.50;99.90
52107;DHT22;38105;52.968;5.974;2023-02-13T10:25:38;7.50;99.90
52107;DHT22;38105;52.968;5.974;2023-02-13T10:27:43;7.50;99.90
52107;DHT22;38105;52.968;5.974;2023-02-13T10:30:21;7.60;99.90
52107;DHT22;38105;52.968;5.974;2023-02-13T10:32:58;7.60;99.90
52107;DHT22;38105;52.968;5.974;2023-02-13T10:36:06;7.60;99.90
52107;DHT22;38105;52.968;5.974;2023-02-13T10:38:57;7.70;99.90
52107;DHT22;38105;52.968;5.974;2023-02-13T10:41:49;7.60;99.90
52107;DHT22;38105;52.968;5.974;2023-02-13T11:01:08;8.00;99.90
52107;DHT22;38105;52.968;5.974;2023-02-13T11:03:34;8.00;99.90
52107;DHT22;38105;52.968;5.974;2023-02-13T11:06:08;8.10;99.90
52107;DHT22;38105;52.968;5.974;2023-02-13T11:08:43;8.10;99.90
52107;DHT22;38105;52.968;5.974;2023-02-13T11:11:36;8.10;99.90
52107;DHT22;38105;52.968;5.974;2023-02-13T11:16:45;8.20;99.90
52107;DHT22;38105;52.968;5.974;2023-02-13T11:19:36;8.20;99.90
52107;DHT22;38105;52.968;5.974;2023-02-13T11:22:35;8.30;99.90
52107;DHT22;38105;52.968;5.974;2023-02-13T11:25:21;8.20;99.90
52107;DHT22;38105;52.968;5.974;2023-02-13T11:27:49;8.30;99.90
52107;DHT22;38105;52.968;5.974;2023-02-13T11:30:30;8.40;99.90
52107;DHT22;38105;52.968;5.974;2023-02-13T11:32:59;8.40;99.90
52107;DHT22;38105;52.968;5.974;2023-02-13T11:35:30;8.50;99.90
52107;DHT22;38105;52.968;5.974;2023-02-13T11:38:23;8.60;99.90
52107;DHT22;38105;52.968;5.974;2023-02-13T11:40:50;8.70;99.90
52107;DHT22;38105;52.968;5.974;2023-02-13T11:44:16;8.70;99.90
52107;DHT22;38105;52.968;5.974;2023-02-13T11:46:27;8.80;99.90
52107;DHT22;38105;52.968;5.974;2023-02-13T11:49:03;8.80;99.90
52107;DHT22;38105;52.968;5.974;2023-02-13T11:56:56;9.00;99.90
52107;DHT22;38105;52.968;5.974;2023-02-13T11:59:24;9.00;99.90
52107;DHT22;38105;52.968;5.974;2023-02-13T12:02:03;9.10;99.90
52107;DHT22;38105;52.968;5.974;2023-02-13T12:04:29;9.10;99.90
52107;DHT22;38105;52.968;5.974;2023-02-13T12:09:23;9.30;99.90
52107;DHT22;38105;52.968;5.974;2023-02-13T12:11:51;9.30;99.90
52107;DHT22;38105;52.968;5.974;2023-02-13T12:14:24;9.20;99.90
52107;DHT22;38105;52.968;5.974;2023-02-13T12:16:54;9.40;99.90
52107;DHT22;38105;52.968;5.974;2023-02-13T12:19:45;9.30;99.90
52107;DHT22;38105;52.968;5.974;2023-02-13T12:22:28;9.40;99.90
52107;DHT22;38105;52.968;5.974;2023-02-13T12:27:43;9.50;99.90
52107;DHT22;38105;52.968;5.974;2023-02-13T12:36:33;9.40;99.90
52107;DHT22;38105;52.968;5.974;2023-02-13T12:45:24;9.50;99.90
52107;DHT22;38105;52.968;5.974;2023-02-13T12:48:09;9.50;99.90
52107;DHT22;38105;52.968;5.974;2023-02-13T12:56:08;9.50;99.90
52107;DHT22;38105;52.968;5.974;2023-02-13T12:59:02;9.50;99.90
52107;DHT22;38105;52.968;5.974;2023-02-13T13:07:35;9.40;99.90
52107;DHT22;38105;52.968;5.974;2023-02-13T13:13:03;9.30;99.90
52107;DHT22;38105;52.968;5.974;2023-02-13T13:15:45;9.30;99.90
52107;DHT22;38105;52.968;5.974;2023-02-13T13:21:21;9.30;99.90
52107;DHT22;38105;52.968;5.974;2023-02-13T13:24:17;9.30;99.90
52107;DHT22;38105;52.968;5.974;2023-02-13T13:26:48;9.20;99.90
52107;DHT22;38105;52.968;5.974;2023-02-13T13:29:24;9.30;99.90
52107;DHT22;38105;52.968;5.974;2023-02-13T13:32:01;9.30;99.90
52107;DHT22;38105;52.968;5.974;2023-02-13T13:34:29;9.30;99.90
52107;DHT22;38105;52.968;5.974;2023-02-13T13:51:12;9.30;99.90
52107;DHT22;38105;52.968;5.974;2023-02-13T13:59:24;9.40;99.90
52107;DHT22;38105;52.968;5.974;2023-02-13T14:07:40;9.30;99.90
52107;DHT22;38105;52.968;5.974;2023-02-13T14:13:00;9.40;99.90
52107;DHT22;38105;52.968;5.974;2023-02-13T14:25:48;9.40;99.90
52107;DHT22;38105;52.968;5.974;2023-02-13T14:28:21;9.40;99.90
52107;DHT22;38105;52.968;5.974;2023-02-13T14:30:49;9.40;99.90
52107;DHT22;38105;52.968;5.974;2023-02-13T14:33:27;9.30;99.90
52107;DHT22;38105;52.968;5.974;2023-02-13T14:36:06;9.30;99.90
52107;DHT22;38105;52.968;5.974;2023-02-13T14:38:33;9.20;99.90
52107;DHT22;38105;52.968;5.974;2023-02-13T14:41:00;9.30;99.90
52107;DHT22;38105;52.968;5.974;2023-02-13T14:44:01;9.20;99.90
52107;DHT22;38105;52.968;5.974;2023-02-13T14:46:33;9.20;99.90
52107;DHT22;38105;52.968;5.974;2023-02-13T14:49:29;9.30;99.90
52107;DHT22;38105;52.968;5.974;2023-02-13T14:52:00;9.30;99.90
52107;DHT22;38105;52.968;5.974;2023-02-13T14:57:22;9.10;99.90
52107;DHT22;38105;52.968;5.974;2023-02-13T14:59:57;9.10;99.90
52107;DHT22;38105;52.968;5.974;2023-02-13T15:02:24;9.10;99.90
52107;DHT22;38105;52.968;5.974;2023-02-13T15:05:23;9.00;99.90
52107;DHT22;38105;52.968;5.974;2023-02-13T15:08:15;9.10;99.90
52107;DHT22;38105;52.968;5.974;2023-02-13T15:10:43;9.10;99.90
52107;DHT22;38105;52.968;5.974;2023-02-13T15:13:22;9.00;99.90
52107;DHT22;38105;52.968;5.974;2023-02-13T15:15:58;9.10;99.90
52107;DHT22;38105;52.968;5.974;2023-02-13T15:18:30;9.20;99.90
52107;DHT22;38105;52.968;5.974;2023-02-13T15:20:59;9.10;99.90
52107;DHT22;38105;52.968;5.974;2023-02-13T15:23:30;9.10;99.90
52107;DHT22;38105;52.968;5.974;2023-02-13T15:26:06;9.10;99.90
52107;DHT22;38105;52.968;5.974;2023-02-13T15:28:33;9.20;99.90
52107;DHT22;38105;52.968;5.974;2023-02-13T15:31:05;9.20;99.90
52107;DHT22;38105;52.968;5.974;2023-02-13T15:33:44;9.30;99.90
52107;DHT22;38105;52.968;5.974;2023-02-13T15:36:18;9.30;99.90
52107;DHT22;38105;52.968;5.974;2023-02-13T15:38:44;9.30;99.90
52107;DHT22;38105;52.968;5.974;2023-02-13T15:41:19;9.20;99.90
52107;DHT22;38105;52.968;5.974;2023-02-13T15:43:48;9.20;99.90
52107;DHT22;38105;52.968;5.974;2023-02-13T15:46:25;9.10;99.90
52107;DHT22;38105;52.968;5.974;2023-02-13T15:48:53;8.90;99.90
52107;DHT22;38105;52.968;5.974;2023-02-13T15:51:21;8.80;99.90
52107;DHT22;38105;52.968;5.974;2023-02-13T15:53:57;8.70;99.90
52107;DHT22;38105;52.968;5.974;2023-02-13T15:56:24;8.60;99.90
52107;DHT22;38105;52.968;5.974;2023-02-13T15:58:51;8.50;99.90
52107;DHT22;38105;52.968;5.974;2023-02-13T16:01:18;8.50;99.90
52107;DHT22;38105;52.968;5.974;2023-02-13T16:03:49;8.40;99.90
52107;DHT22;38105;52.968;5.974;2023-02-13T16:06:17;8.40;99.90
52107;DHT22;38105;52.968;5.974;2023-02-13T16:08:50;8.30;99.90
52107;DHT22;38105;52.968;5.974;2023-02-13T16:11:17;8.20;99.90
52107;DHT22;38105;52.968;5.974;2023-02-13T16:13:56;8.20;99.90
52107;DHT22;38105;52.968;5.974;2023-02-13T16:16:24;8.20;99.90
52107;DHT22;38105;52.968;5.974;2023-02-13T16:18:51;8.10;99.90
52107;DHT22;38105;52.968;5.974;2023-02-13T16:21:26;8.00;99.90
52107;DHT22;38105;52.968;5.974;2023-02-13T16:23:58;8.00;99.90
52107;DHT22;38105;52.968;5.974;2023-02-13T16:26:24;7.90;99.90
52107;DHT22;38105;52.968;5.974;2023-02-13T16:28:51;7.90;99.90
52107;DHT22;38105;52.968;5.974;2023-02-13T16:31:16;7.80;99.90
52107;DHT22;38105;52.968;5.974;2023-02-13T16:33:44;7.80;99.90
52107;DHT22;38105;52.968;5.974;2023-02-13T16:38:43;7.60;99.90
52107;DHT22;38105;52.968;5.974;2023-02-13T16:44:27;7.60;99.90
52107;DHT22;38105;52.968;5.974;2023-02-13T16:46:34;7.50;99.90
52107;DHT22;38105;52.968;5.974;2023-02-13T16:49:13;7.50;99.90
52107;DHT22;38105;52.968;5.974;2023-02-13T16:51:49;7.30;99.90
52107;DHT22;38105;52.968;5.974;2023-02-13T16:57:00;7.10;99.90
52107;DHT22;38105;52.968;5.974;2023-02-13T17:07:32;6.60;99.90
52107;DHT22;38105;52.968;5.974;2023-02-13T17:12:33;6.60;99.90
52107;DHT22;38105;52.968;5.974;2023-02-13T17:15:00;6.60;99.90
52107;DHT22;38105;52.968;5.974;2023-02-13T17:17:28;6.50;99.90
52107;DHT22;38105;52.968;5.974;2023-02-13T17:19:54;6.40;99.90
52107;DHT22;38105;52.968;5.974;2023-02-13T17:22:44;6.40;99.90
52107;DHT22;38105;52.968;5.974;2023-02-13T17:27:47;6.00;99.90
52107;DHT22;38105;52.968;5.974;2023-02-13T17:30:21;5.90;99.90
52107;DHT22;38105;52.968;5.974;2023-02-13T17:32:48;5.90;99.90
52107;DHT22;38105;52.968;5.974;2023-02-13T17:35:15;5.70;99.90
52107;DHT22;38105;52.968;5.974;2023-02-13T17:37:42;5.50;99.90
52107;DHT22;38105;52.968;5.974;2023-02-13T17:40:15;5.40;99.90
52107;DHT22;38105;52.968;5.974;2023-02-13T17:42:43;5.30;99.90
52107;DHT22;38105;52.968;5.974;2023-02-13T17:45:13;5.20;99.90
52107;DHT22;38105;52.968;5.974;2023-02-13T17:47:39;5.00;99.90
52107;DHT22;38105;52.968;5.974;2023-02-13T17:50:05;4.90;99.90
52107;DHT22;38105;52.968;5.974;2023-02-13T17:52:31;5.20;99.90
52107;DHT22;38105;52.968;5.974;2023-02-13T17:54:56;5.10;99.90
52107;DHT22;38105;52.968;5.974;2023-02-13T17:57:22;5.40;99.90
52107;DHT22;38105;52.968;5.974;2023-02-13T17:59:48;5.30;99.90
52107;DHT22;38105;52.968;5.974;2023-02-13T18:02:22;5.30;99.90
52107;DHT22;38105;52.968;5.974;2023-02-13T18:04:48;5.30;99.90
52107;DHT22;38105;52.968;5.974;2023-02-13T18:07:16;5.30;99.90
52107;DHT22;38105;52.968;5.974;2023-02-13T18:09:43;5.10;99.90
52107;DHT22;38105;52.968;5.974;2023-02-13T18:12:18;5.20;99.90
52107;DHT22;38105;52.968;5.974;2023-02-13T18:14:44;5.10;99.90
52107;DHT22;38105;52.968;5.974;2023-02-13T18:17:10;5.20;99.90
52107;DHT22;38105;52.968;5.974;2023-02-13T18:19:36;5.00;99.90
52107;DHT22;38105;52.968;5.974;2023-02-13T18:22:03;5.10;99.90
52107;DHT22;38105;52.968;5.974;2023-02-13T18:24:30;5.00;99.90
52107;DHT22;38105;52.968;5.974;2023-02-13T18:26:57;5.30;99.90
52107;DHT22;38105;52.968;5.974;2023-02-13T18:29:23;5.10;99.90
52107;DHT22;38105;52.968;5.974;2023-02-13T18:31:49;5.20;99.90
52107;DHT22;38105;52.968;5.974;2023-02-13T18:34:19;5.10;99.90
52107;DHT22;38105;52.968;5.974;2023-02-13T18:36:46;5.10;99.90
52107;DHT22;38105;52.968;5.974;2023-02-13T18:39:12;4.90;99.90
52107;DHT22;38105;52.968;5.974;2023-02-13T18:41:38;5.00;99.90